Time;durP1;ratioP1;P1;durP2;ratioP2;P2;SDS_P1;SDS_P2;PMS_P1;PMS_P2;Temp;Humidity;BMP_temperature;BMP_pressure;BME280_temperature;BME280_humidity;BME280_pressure;Samples;Min_cycle;Max_cycle;Signal;HPM_P1;HPM_P2
2022/12/27 00:00:43;;;;;;;;;4.50;2.75;;;;;8.60;61.56;102108.63;5029952;28;46784;-59
2022/12/27 00:03:08;;;;;;;;;2.00;2.00;;;;;8.62;61.54;102101.97;5030347;28;45489;-59
2022/12/27 00:05:34;;;;;;;;;3.75;3.00;;;;;8.67;61.80;102109.66;5047271;28;45877;-59
2022/12/27 00:07:59;;;;;;;;;2.00;2.00;;;;;8.70;62.22;102103.84;5035397;28;45705;-58
2022/12/27 00:10:25;;;;;;;;;6.00;3.75;;;;;8.67;62.27;102104.19;5038518;28;45573;-58
2022/12/27 00:12:52;;;;;;;;;7.25;3.25;;;;;8.65;61.81;102111.72;5050526;28;45929;-56
2022/12/27 00:15:17;;;;;;;;;4.80;3.00;;;;;8.65;61.81;102122.69;5048414;28;45754;-58
2022/12/27 00:17:43;;;;;;;;;1.25;1.25;;;;;8.54;62.34;102115.63;5052531;28;45716;-58
2022/12/27 00:20:09;;;;;;;;;3.50;3.50;;;;;8.60;62.30;102114.09;5052248;28;45392;-58
2022/12/27 00:22:34;;;;;;;;;6.50;3.75;;;;;8.61;62.50;102118.53;5052452;28;45429;-59
2022/12/27 00:25:00;;;;;;;;;3.00;3.00;;;;;8.63;61.80;102121.97;5052710;28;45432;-59
2022/12/27 00:27:26;;;;;;;;;2.50;2.50;;;;;8.62;62.09;102115.66;5051600;28;45598;-58
2022/12/27 00:29:51;;;;;;;;;6.00;4.40;;;;;8.62;61.67;102125.72;5052055;28;46425;-59
2022/12/27 00:32:17;;;;;;;;;6.75;6.00;;;;;8.56;62.84;102127.25;5049607;28;45511;-59
2022/12/27 00:34:42;;;;;;;;;6.25;5.00;;;;;8.55;62.67;102122.81;5052566;28;45460;-59
2022/12/27 00:37:08;;;;;;;;;6.50;6.50;;;;;8.56;62.60;102131.84;5052369;28;45694;-58
2022/12/27 00:39:33;;;;;;;;;9.25;8.00;;;;;8.50;62.04;102130.63;5050831;28;46094;-59
2022/12/27 00:41:59;;;;;;;;;4.25;4.25;;;;;8.25;62.17;102086.72;5052186;28;45400;-58
2022/12/27 00:44:24;;;;;;;;;8.50;6.25;;;;;8.47;62.57;102130.91;5050425;28;45514;-60
2022/12/27 00:46:50;;;;;;;;;11.00;8.75;;;;;8.46;62.67;102132.81;5052399;28;45436;-62
2022/12/27 00:49:15;;;;;;;;;7.75;7.75;;;;;8.44;62.70;102134.00;5050222;28;45452;-58
2022/12/27 00:51:41;;;;;;;;;7.75;5.25;;;;;8.18;62.61;102097.47;5056191;28;45364;-58
2022/12/27 00:54:06;;;;;;;;;7.25;7.00;;;;;8.43;62.51;102132.28;5038830;28;45399;-54
2022/12/27 00:56:32;;;;;;;;;5.75;4.75;;;;;8.16;62.80;102088.53;5055992;28;45831;-57
2022/12/27 00:58:59;;;;;;;;;10.50;6.75;;;;;8.38;62.63;102135.53;5055397;28;45849;-58
2022/12/27 01:01:26;;;;;;;;;6.40;6.40;;;;;8.40;62.99;102130.72;5035537;28;45406;-58
2022/12/27 01:03:51;;;;;;;;;8.20;7.40;;;;;8.37;63.20;102136.50;5051513;28;45358;-58
2022/12/27 01:06:19;;;;;;;;;8.00;5.75;;;;;8.38;63.06;102139.09;5055877;28;45635;-58
2022/12/27 01:08:44;;;;;;;;;6.20;6.20;;;;;8.36;63.50;102135.69;5054174;28;45467;-58
2022/12/27 01:11:10;;;;;;;;;7.75;6.75;;;;;8.37;63.30;102144.72;5054830;28;45415;-57
2022/12/27 01:13:36;;;;;;;;;7.50;7.25;;;;;8.17;63.80;102119.50;5055683;28;45336;-59
2022/12/27 01:16:10;;;;;;;;;6.75;5.00;;;;;8.31;63.03;102148.13;5027874;28;45572;-53
2022/12/27 01:18:35;;;;;;;;;2.20;1.60;;;;;8.28;63.04;102158.38;5033999;28;48045;-57
2022/12/27 01:21:08;;;;;;;;;3.75;3.75;;;;;8.31;63.51;102150.88;5035634;28;45452;-59
2022/12/27 01:23:34;;;;;;;;;5.60;5.60;;;;;8.33;63.61;102141.47;5034336;28;45555;-56
2022/12/27 01:26:04;;;;;;;;;7.25;6.00;;;;;8.12;63.43;102109.88;5036250;28;45889;-56
2022/12/27 01:28:30;;;;;;;;;6.60;5.80;;;;;8.36;63.47;102153.97;5035471;28;46144;-59
2022/12/27 01:30:55;;;;;;;;;7.00;5.75;;;;;8.31;62.94;102145.41;5032117;28;45478;-60
2022/12/27 01:33:21;;;;;;;;;6.75;5.00;;;;;8.34;63.23;102148.66;5015757;28;45740;-60
2022/12/27 01:35:46;;;;;;;;;5.25;5.25;;;;;8.35;63.19;102144.91;5015823;28;45258;-59
2022/12/27 01:38:12;;;;;;;;;3.00;3.00;;;;;8.03;62.87;102096.34;5015539;28;45721;-59
2022/12/27 01:40:37;;;;;;;;;8.00;4.25;;;;;8.34;62.96;102147.81;5014488;28;45233;-56
2022/12/27 01:43:03;;;;;;;;;3.75;3.50;;;;;8.37;63.52;102150.19;5015153;28;45374;-57
2022/12/27 01:45:33;;;;;;;;;11.00;4.25;;;;;8.37;63.05;102153.81;5015957;28;45530;-57
2022/12/27 01:48:11;;;;;;;;;6.60;4.80;;;;;8.40;63.61;102160.84;5013846;28;45379;-59
2022/12/27 01:50:57;;;;;;;;;6.60;4.80;;;;;8.34;63.43;102156.88;5014102;28;45210;-53
2022/12/27 01:53:33;;;;;;;;;3.00;3.00;;;;;8.12;63.46;102133.66;5015182;28;45258;-54
2022/12/27 01:56:03;;;;;;;;;4.00;2.40;;;;;8.27;64.34;102167.59;5013048;28;45382;-57
2022/12/27 01:58:31;;;;;;;;;2.00;2.00;;;;;7.67;63.62;102086.34;5029078;28;45384;-53
2022/12/27 02:00:57;;;;;;;;;6.00;4.80;;;;;8.20;64.23;102161.06;5033918;28;45335;-56
2022/12/27 02:03:22;;;;;;;;;5.00;5.00;;;;;8.25;63.27;102169.66;5014839;28;45398;-56
2022/12/27 02:05:49;;;;;;;;;2.75;2.75;;;;;8.26;64.02;102174.09;5026308;28;45376;-57
2022/12/27 02:08:50;;;;;;;;;4.20;3.00;;;;;8.28;64.38;102169.31;5034354;28;47149;-57
2022/12/27 02:11:16;;;;;;;;;1.60;1.60;;;;;8.27;63.65;102172.19;5033608;28;45547;-57
2022/12/27 02:13:43;;;;;;;;;6.00;3.00;;;;;8.25;63.29;102176.97;5034997;28;45375;-57
2022/12/27 02:16:13;;;;;;;;;5.40;4.20;;;;;8.19;63.78;102183.97;5017041;28;45539;-57
2022/12/27 02:18:38;;;;;;;;;7.20;2.20;;;;;8.22;64.47;102177.31;5034606;28;45365;-55
2022/12/27 02:21:07;;;;;;;;;5.75;2.75;;;;;8.24;63.38;102183.47;5033447;28;45456;-55
2022/12/27 02:26:52;;;;;;;;;2.20;2.20;;;;;8.20;64.44;102182.06;5034510;28;45344;-57
2022/12/27 02:29:23;;;;;;;;;3.00;3.00;;;;;8.13;63.77;102179.13;5033035;28;45436;-56
2022/12/27 02:32:21;;;;;;;;;4.80;2.00;;;;;8.16;64.83;102172.50;5034693;28;45393;-56
2022/12/27 02:35:04;;;;;;;;;4.20;2.40;;;;;8.16;64.20;102169.75;5033127;28;45386;-57
2022/12/27 02:37:31;;;;;;;;;5.60;2.80;;;;;8.13;64.42;102163.56;5034878;28;45294;-56
2022/12/27 02:53:02;;;;;;;;;2.80;2.00;;;;;8.10;64.08;102150.22;5016717;28;46095;-56
2022/12/27 02:54:12;;;;;;;;;6.40;3.00;;;;;8.26;64.17;102167.75;5034252;28;45370;-57
2022/12/27 03:08:52;;;;;;;;;4.20;3.40;;;;;8.30;64.62;102191.03;5037225;28;45369;-57
2022/12/27 03:17:29;;;;;;;;;6.00;4.00;;;;;8.28;64.46;102190.34;5035043;28;45530;-58
2022/12/27 03:25:27;;;;;;;;;4.60;4.20;;;;;8.04;64.50;102137.19;5021920;28;45403;-56
2022/12/27 03:39:43;;;;;;;;;5.40;5.40;;;;;8.11;64.09;102182.03;5015776;28;45807;-55
2022/12/27 03:44:56;;;;;;;;;4.20;4.20;;;;;8.13;64.62;102204.59;5012322;28;45406;-59
2022/12/27 03:47:38;;;;;;;;;6.75;5.00;;;;;8.06;65.05;102195.31;4998063;28;45415;-57
2022/12/27 03:50:09;;;;;;;;;5.00;4.20;;;;;7.79;65.38;102158.88;5015978;28;45451;-57
2022/12/27 03:52:47;;;;;;;;;4.00;4.00;;;;;8.05;64.86;102198.22;5015852;28;45872;-56
2022/12/27 03:55:12;;;;;;;;;5.60;5.60;;;;;8.01;65.08;102200.41;5018958;28;45440;-58
2022/12/27 03:57:38;;;;;;;;;4.25;3.50;;;;;8.04;65.47;102194.63;5014253;28;45470;-57
2022/12/27 04:00:04;;;;;;;;;6.50;4.50;;;;;7.89;65.36;102158.78;5014915;28;45417;-57
2022/12/27 04:02:29;;;;;;;;;5.20;3.00;;;;;8.12;65.29;102194.66;5017058;28;45357;-58
2022/12/27 04:04:55;;;;;;;;;4.50;3.00;;;;;8.13;64.60;102187.34;5016822;28;45242;-56
2022/12/27 04:07:20;;;;;;;;;6.00;5.50;;;;;8.11;65.00;102190.22;5035426;28;45591;-53
2022/12/27 04:37:06;;;;;;;;;5.00;5.00;;;;;8.03;65.35;102194.78;5016342;28;45405;-52
2022/12/27 04:39:31;;;;;;;;;6.00;6.00;;;;;8.04;65.52;102199.22;5015116;28;45627;-56
2022/12/27 04:55:27;;;;;;;;;7.00;3.80;;;;;8.04;65.02;102189.16;5035441;28;45396;-60
2022/12/27 04:57:52;;;;;;;;;3.40;3.00;;;;;8.03;65.12;102183.84;5036261;28;45399;-60
2022/12/27 05:03:05;;;;;;;;;2.00;2.00;;;;;7.77;65.55;102138.19;5035724;28;45448;-59
2022/12/27 05:05:31;;;;;;;;;3.00;3.00;;;;;7.73;65.60;102152.19;5014751;28;45391;-59
2022/12/27 05:16:08;;;;;;;;;3.80;2.40;;;;;7.93;65.22;102181.19;5015779;28;45461;-54
2022/12/27 05:18:34;;;;;;;;;4.75;3.00;;;;;7.97;64.98;102185.34;5018729;28;45540;-57
2022/12/27 05:21:03;;;;;;;;;6.50;3.00;;;;;7.97;65.03;102182.59;5035411;28;46118;-58
2022/12/27 05:26:20;;;;;;;;;5.80;3.80;;;;;7.79;65.45;102142.47;5035556;28;45221;-59
2022/12/27 05:28:46;;;;;;;;;3.40;3.40;;;;;7.88;65.21;102161.69;5034828;28;45413;-57
2022/12/27 05:31:12;;;;;;;;;2.00;2.00;;;;;7.99;65.12;102184.16;5035259;28;46269;-55
2022/12/27 05:33:37;;;;;;;;;2.75;2.75;;;;;7.97;65.23;102185.34;5035303;28;45316;-57
2022/12/27 05:36:03;;;;;;;;;4.75;3.00;;;;;7.80;65.24;102155.13;5035094;28;45446;-59
2022/12/27 05:38:28;;;;;;;;;3.50;3.50;;;;;7.82;65.32;102149.50;5035320;28;45388;-62
2022/12/27 05:41:00;;;;;;;;;5.50;2.50;;;;;7.91;65.09;102175.03;5035082;28;46828;-59
2022/12/27 05:43:26;;;;;;;;;5.60;2.40;;;;;7.90;65.26;102176.06;5035015;28;45448;-56
2022/12/27 05:45:51;;;;;;;;;2.00;2.00;;;;;7.87;65.60;102179.97;5034062;28;45369;-58
2022/12/27 05:48:17;;;;;;;;;1.25;1.25;;;;;7.67;65.85;102152.81;5035617;28;45304;-55
2022/12/27 05:50:42;;;;;;;;;6.75;5.00;;;;;7.86;65.12;102176.38;5033534;28;46100;-57
2022/12/27 05:53:08;;;;;;;;;7.25;5.00;;;;;7.93;65.40;102181.19;5035166;28;45217;-60
2022/12/27 05:55:33;;;;;;;;;8.00;3.00;;;;;7.93;65.16;102182.06;5034798;28;45409;-58
2022/12/27 05:57:59;;;;;;;;;5.00;2.00;;;;;7.96;65.18;102178.16;5035463;28;45468;-58
2022/12/27 06:00:24;;;;;;;;;6.50;3.00;;;;;7.86;65.05;102156.38;5034589;28;45883;-59
2022/12/27 06:02:50;;;;;;;;;2.00;1.00;;;;;7.96;64.80;102164.50;5035058;28;45435;-59
2022/12/27 06:05:16;;;;;;;;;3.75;1.50;;;;;7.98;64.97;102156.97;5033771;28;45357;-58
2022/12/27 06:07:41;;;;;;;;;3.75;2.00;;;;;7.91;65.49;102145.84;5034976;28;45249;-59
2022/12/27 06:10:08;;;;;;;;;1.75;1.75;;;;;7.92;64.75;102155.75;5034704;28;46487;-56
2022/12/27 06:12:33;;;;;;;;;5.00;3.00;;;;;7.91;64.89;102150.44;5034451;28;45360;-56
2022/12/27 06:14:58;;;;;;;;;5.00;4.75;;;;;7.67;65.31;102120.03;5034512;28;45491;-57
2022/12/27 06:17:24;;;;;;;;;1.50;1.00;;;;;7.83;65.05;102146.63;5035278;28;45580;-57
2022/12/27 06:19:49;;;;;;;;;3.75;2.00;;;;;7.67;65.39;102114.56;5034686;28;45559;-57
2022/12/27 06:22:15;;;;;;;;;4.00;4.00;;;;;7.91;65.42;102161.38;5034606;28;45408;-58
2022/12/27 06:24:40;;;;;;;;;3.75;3.75;;;;;7.91;65.46;102161.38;5034642;28;45452;-57
2022/12/27 06:27:06;;;;;;;;;3.75;3.50;;;;;7.72;65.45;102139.53;5034647;28;45356;-58
2022/12/27 06:29:33;;;;;;;;;4.50;3.00;;;;;7.88;65.39;102164.44;5035399;28;46668;-58
2022/12/27 06:31:58;;;;;;;;;4.60;2.80;;;;;7.89;65.75;102163.41;5036596;28;45321;-58
2022/12/27 06:34:24;;;;;;;;;5.00;4.00;;;;;7.87;65.48;102166.31;5038246;28;45372;-55
2022/12/27 06:36:50;;;;;;;;;5.25;2.25;;;;;7.59;66.30;102119.97;5036941;28;45552;-56
2022/12/27 06:39:18;;;;;;;;;6.40;3.00;;;;;7.88;65.86;102156.25;5036813;28;45413;-55
2022/12/27 06:41:44;;;;;;;;;5.20;3.20;;;;;7.85;65.91;102146.47;5019904;28;45414;-58
2022/12/27 06:44:09;;;;;;;;;3.00;3.00;;;;;7.89;65.87;102163.41;5016936;28;45320;-58
2022/12/27 06:46:35;;;;;;;;;5.00;5.00;;;;;7.86;65.87;102159.13;5018620;28;45636;-58
2022/12/27 06:49:00;;;;;;;;;5.25;4.00;;;;;7.86;65.61;102162.69;5018577;28;45658;-58
2022/12/27 06:51:26;;;;;;;;;10.50;5.75;;;;;7.65;65.75;102127.53;5018293;28;45324;-58
2022/12/27 06:53:51;;;;;;;;;8.25;5.25;;;;;7.67;65.75;102155.56;5016797;28;45235;-57
2022/12/27 06:56:19;;;;;;;;;6.00;5.00;;;;;7.57;66.49;102160.22;5018428;28;45547;-56
2022/12/27 06:58:45;;;;;;;;;3.00;3.00;;;;;7.47;66.09;102133.00;5016692;28;45444;-55
2022/12/27 07:01:12;;;;;;;;;6.40;5.00;;;;;7.67;66.02;102166.47;5018020;28;45365;-58
2022/12/27 07:03:37;;;;;;;;;6.40;3.80;;;;;7.71;65.80;102159.69;5018052;28;45342;-58
2022/12/27 07:06:04;;;;;;;;;6.00;5.50;;;;;7.64;66.14;102144.06;5021533;28;45416;-58
2022/12/27 07:08:29;;;;;;;;;5.40;5.00;;;;;7.65;65.97;102157.59;5038186;28;46655;-58
2022/12/27 07:10:59;;;;;;;;;9.00;5.00;;;;;7.65;66.98;102156.72;5037583;28;45356;-57
2022/12/27 07:13:25;;;;;;;;;7.00;5.80;;;;;7.53;66.19;102145.19;5016864;28;45494;-57
2022/12/27 07:15:50;;;;;;;;;5.00;5.00;;;;;7.61;66.60;102164.38;5016826;28;45550;-57
2022/12/27 07:18:16;;;;;;;;;5.00;5.00;;;;;7.43;66.44;102129.72;5017901;28;46441;-56
2022/12/27 07:20:41;;;;;;;;;6.50;6.50;;;;;7.35;66.61;102124.19;5011156;28;45369;-58
2022/12/27 07:23:07;;;;;;;;;7.00;5.00;;;;;7.41;66.45;102150.88;5037821;28;45536;-58
2022/12/27 07:25:32;;;;;;;;;6.50;6.50;;;;;7.51;66.69;102171.78;5036011;28;45592;-58
2022/12/27 07:27:58;;;;;;;;;10.00;6.00;;;;;7.61;66.90;102183.50;5037580;28;46386;-58
2022/12/27 07:30:23;;;;;;;;;7.75;7.00;;;;;7.64;66.38;102183.22;5037620;28;45409;-58
2022/12/27 07:32:49;;;;;;;;;5.00;5.00;;;;;7.42;66.45;102147.13;5036116;28;45397;-58
2022/12/27 07:35:14;;;;;;;;;5.00;5.00;;;;;7.70;66.06;102185.28;5037374;28;45472;-56
2022/12/27 07:37:40;;;;;;;;;10.00;7.25;;;;;7.73;65.95;102187.72;5037355;28;46423;-54
2022/12/27 07:40:06;;;;;;;;;6.50;2.75;;;;;7.54;66.54;102153.22;5037024;28;45313;-55
2022/12/27 07:42:31;;;;;;;;;6.40;6.40;;;;;7.53;66.25;102146.03;5036849;28;45152;-54
2022/12/27 07:44:58;;;;;;;;;6.00;6.00;;;;;7.50;65.54;102132.69;5019014;28;45296;-57
2022/12/27 07:47:23;;;;;;;;;7.40;6.60;;;;;7.57;66.03;102138.38;5015602;28;46977;-58
2022/12/27 07:49:49;;;;;;;;;9.25;7.00;;;;;7.80;65.85;102177.00;5017893;28;45332;-58
2022/12/27 07:52:14;;;;;;;;;8.25;6.50;;;;;7.60;65.65;102151.72;5017349;28;45223;-59
2022/12/27 07:54:40;;;;;;;;;3.50;3.25;;;;;7.81;65.66;102181.47;5017659;28;45482;-59
2022/12/27 07:57:06;;;;;;;;;6.80;5.00;;;;;7.83;66.07;102184.03;5017075;28;45637;-58
2022/12/27 07:59:31;;;;;;;;;6.00;6.00;;;;;7.84;65.80;102183.88;5017038;28;45322;-58
2022/12/27 08:02:03;;;;;;;;;5.75;5.00;;;;;7.84;65.98;102177.53;5017405;28;45352;-56
2022/12/27 08:04:28;;;;;;;;;6.80;5.60;;;;;7.85;65.78;102174.66;5016226;28;45379;-57
2022/12/27 08:06:56;;;;;;;;;9.00;7.00;;;;;7.86;65.71;102170.91;5025453;28;45637;-58
2022/12/27 08:09:27;;;;;;;;;8.00;5.00;;;;;7.89;65.67;102182.56;5001990;28;45409;-59
2022/12/27 08:11:52;;;;;;;;;7.80;6.80;;;;;7.72;65.54;102149.59;5035560;28;45361;-58
2022/12/27 08:14:17;;;;;;;;;7.00;7.00;;;;;7.75;65.22;102149.31;5017148;28;45400;-58
2022/12/27 08:16:43;;;;;;;;;7.75;5.00;;;;;7.77;65.31;102160.06;5015344;28;46015;-55
2022/12/27 08:19:08;;;;;;;;;6.75;6.00;;;;;7.94;65.34;102194.72;5016153;28;45348;-59
2022/12/27 08:21:34;;;;;;;;;8.50;6.00;;;;;7.94;65.04;102188.38;5033572;28;45362;-59
2022/12/27 08:23:59;;;;;;;;;16.50;9.50;;;;;7.73;65.59;102163.13;5054587;28;45396;-58
2022/12/27 08:26:25;;;;;;;;;7.75;6.25;;;;;7.96;65.83;102192.66;5054599;28;46332;-59
2022/12/27 08:28:51;;;;;;;;;7.25;6.25;;;;;7.95;65.33;102193.69;5055436;28;45729;-60
2022/12/27 08:31:16;;;;;;;;;10.00;6.00;;;;;7.91;64.86;102189.59;5055130;28;45609;-59
2022/12/27 08:33:42;;;;;;;;;4.75;4.00;;;;;7.92;65.42;102196.75;5036931;28;45498;-56
2022/12/27 08:36:09;;;;;;;;;8.00;3.00;;;;;7.90;65.28;102198.78;5035180;28;46334;-56
2022/12/27 08:38:34;;;;;;;;;6.40;5.60;;;;;7.86;65.15;102200.97;5017450;28;45742;-55
2022/12/27 08:41:00;;;;;;;;;3.00;3.00;;;;;7.81;65.17;102200.59;5036720;28;45363;-55
2022/12/27 08:43:25;;;;;;;;;7.25;6.25;;;;;7.82;65.29;102198.72;5036574;28;45313;-55
2022/12/27 08:45:51;;;;;;;;;8.00;7.00;;;;;7.88;65.44;102211.75;5034863;28;47339;-57
2022/12/27 08:48:16;;;;;;;;;6.50;6.00;;;;;7.84;64.94;102200.28;5036496;28;45171;-58
2022/12/27 08:50:41;;;;;;;;;8.00;6.75;;;;;7.84;65.69;102188.47;5036372;28;45346;-59
2022/12/27 08:53:09;;;;;;;;;5.00;5.00;;;;;7.88;65.52;102208.19;5035927;28;45233;-59
2022/12/27 08:55:34;;;;;;;;;7.20;6.00;;;;;7.87;65.14;102210.03;5034998;28;46713;-59
2022/12/27 08:58:02;;;;;;;;;9.75;8.00;;;;;7.71;65.55;102192.50;5036105;28;45440;-59
2022/12/27 09:00:28;;;;;;;;;8.20;6.00;;;;;7.79;65.07;102201.78;5036404;28;45860;-57
2022/12/27 09:02:54;;;;;;;;;6.00;5.00;;;;;7.83;65.11;102208.63;5034540;28;45445;-56
2022/12/27 09:05:20;;;;;;;;;10.25;7.75;;;;;7.62;65.77;102185.22;5036399;28;46827;-57
2022/12/27 09:07:46;;;;;;;;;8.40;8.40;;;;;7.85;65.78;102218.38;5049036;28;45814;-60
2022/12/27 09:10:12;;;;;;;;;6.00;6.00;;;;;7.81;65.60;102225.22;5056408;28;45273;-59
2022/12/27 09:12:37;;;;;;;;;6.00;6.00;;;;;7.78;65.55;102225.50;5055241;28;45681;-58
2022/12/27 09:15:03;;;;;;;;;10.25;7.75;;;;;7.78;66.04;102222.78;5055836;28;45453;-57
2022/12/27 09:17:28;;;;;;;;;6.75;6.50;;;;;7.79;65.08;102226.38;5056115;28;45268;-60
2022/12/27 09:19:54;;;;;;;;;10.25;7.00;;;;;7.82;65.56;102217.84;5047070;28;45250;-58
2022/12/27 09:22:20;;;;;;;;;8.00;7.00;;;;;7.85;65.69;102217.56;5035460;27;47494;-58
2022/12/27 09:24:45;;;;;;;;;12.50;12.50;;;;;7.87;65.43;102220.97;5053925;28;46838;-54
2022/12/27 09:27:11;;;;;;;;;7.00;5.00;;;;;7.62;65.36;102173.44;5053783;28;45404;-53
2022/12/27 09:29:36;;;;;;;;;11.50;6.75;;;;;7.85;65.74;102221.13;5054048;28;45404;-56
2022/12/27 09:32:02;;;;;;;;;6.50;5.50;;;;;7.63;65.26;102181.47;5054865;28;45415;-53
2022/12/27 09:34:27;;;;;;;;;9.75;7.75;;;;;7.72;65.52;102183.28;5054959;28;45527;-54
2022/12/27 09:36:53;;;;;;;;;11.50;10.25;;;;;7.94;65.76;102216.59;5054165;28;45322;-52
2022/12/27 09:39:18;;;;;;;;;9.00;7.00;;;;;7.96;65.25;102225.47;5055769;28;45390;-53
2022/12/27 09:42:07;;;;;;;;;9.00;6.25;;;;;8.02;65.58;102224.00;5055891;28;45687;-58
2022/12/27 09:45:04;;;;;;;;;7.40;6.60;;;;;7.91;65.71;102221.50;5053627;28;45874;-55
2022/12/27 09:47:51;;;;;;;;;9.80;6.80;;;;;8.03;65.42;102244.88;5055129;28;45453;-60
2022/12/27 09:50:27;;;;;;;;;8.00;8.00;;;;;7.78;64.40;102202.78;5055384;28;45479;-58
2022/12/27 09:53:05;;;;;;;;;7.20;7.20;;;;;8.02;64.73;102228.59;5053877;28;45463;-57
2022/12/27 09:55:37;;;;;;;;;6.40;6.20;;;;;7.82;64.79;102207.78;5036891;28;45451;-53
2022/12/27 09:58:34;;;;;;;;;7.60;6.40;;;;;8.06;65.03;102238.22;5054520;28;45410;-59
2022/12/27 10:01:00;;;;;;;;;9.80;8.00;;;;;7.95;64.69;102209.25;5055265;28;45384;-53
2022/12/27 10:03:26;;;;;;;;;6.50;6.00;;;;;8.11;65.24;102233.16;5050484;28;45709;-53
2022/12/27 10:06:36;;;;;;;;;8.80;8.80;;;;;8.10;65.19;102237.75;5049681;28;46421;-56
2022/12/27 10:09:30;;;;;;;;;11.80;7.20;;;;;8.04;64.75;102219.22;5052656;28;45464;-57
2022/12/27 10:12:14;;;;;;;;;8.00;5.80;;;;;8.12;65.10;102224.75;5052531;28;45508;-53
2022/12/27 10:15:24;;;;;;;;;10.80;6.80;;;;;8.13;64.90;102222.91;5053489;28;45627;-55
2022/12/27 10:17:54;;;;;;;;;8.00;7.60;;;;;8.15;65.18;102220.84;5042022;28;46922;-57
2022/12/27 10:20:22;;;;;;;;;14.40;8.00;;;;;8.11;64.77;102214.84;5053329;28;45400;-58
2022/12/27 10:22:56;;;;;;;;;8.80;7.20;;;;;7.93;65.03;102184.81;5053249;28;45402;-54
2022/12/27 10:25:22;;;;;;;;;7.80;5.40;;;;;8.10;65.07;102220.47;5022339;28;45687;-57
2022/12/27 10:27:47;;;;;;;;;8.25;6.00;;;;;8.04;64.96;102210.16;5028273;28;45426;-55
2022/12/27 10:30:18;;;;;;;;;6.75;6.00;;;;;8.04;64.58;102204.69;5048847;28;45474;-58
2022/12/27 10:32:44;;;;;;;;;3.00;3.00;;;;;7.85;64.81;102180.13;5035436;28;45458;-57
2022/12/27 10:35:15;;;;;;;;;10.00;8.00;;;;;8.12;64.64;102210.25;5053264;28;45579;-56
2022/12/27 10:37:41;;;;;;;;;5.40;5.40;;;;;8.09;64.51;102208.69;5051537;28;45938;-59
2022/12/27 10:40:36;;;;;;;;;9.50;6.75;;;;;8.14;64.81;102209.06;5051764;28;45298;-56
2022/12/27 10:43:09;;;;;;;;;11.60;10.60;;;;;8.16;64.86;102192.47;5051565;28;45585;-54
2022/12/27 10:45:38;;;;;;;;;6.40;5.80;;;;;8.22;64.36;102207.41;5051347;28;45449;-58
2022/12/27 10:48:11;;;;;;;;;6.40;6.00;;;;;8.19;64.72;102203.09;5052752;28;46119;-56
2022/12/27 10:50:37;;;;;;;;;4.20;3.00;;;;;8.17;64.66;102193.34;5051744;28;45611;-54
2022/12/27 10:53:02;;;;;;;;;7.25;6.00;;;;;8.26;64.85;102195.97;5043883;28;45619;-57
2022/12/27 10:55:37;;;;;;;;;7.75;6.75;;;;;8.27;64.10;102202.28;5032833;28;45448;-56
2022/12/27 10:58:34;;;;;;;;;7.60;4.80;;;;;8.14;64.47;102173.50;5039289;28;45890;-55
2022/12/27 11:00:59;;;;;;;;;11.00;7.20;;;;;8.43;64.89;102208.91;5051551;28;45483;-58
2022/12/27 11:03:27;;;;;;;;;7.25;7.25;;;;;8.50;65.05;102215.44;5052934;28;45642;-56
2022/12/27 11:06:01;;;;;;;;;8.00;6.20;;;;;8.57;63.36;102205.59;5042435;28;45577;-53
2022/12/27 11:08:26;;;;;;;;;6.00;6.00;;;;;8.70;63.44;102204.28;5046291;28;45492;-56
2022/12/27 11:11:14;;;;;;;;;7.00;7.00;;;;;8.57;63.06;102177.34;5052693;28;45598;-57
2022/12/27 11:13:39;;;;;;;;;9.80;8.00;;;;;8.79;63.30;102203.28;5034194;28;45456;-55
2022/12/27 11:16:05;;;;;;;;;5.25;2.00;;;;;8.85;63.14;102188.09;5053539;28;45637;-55
2022/12/27 11:18:33;;;;;;;;;7.75;6.00;;;;;8.73;63.96;102162.88;5054318;28;46226;-48
2022/12/27 11:20:59;;;;;;;;;8.60;7.80;;;;;8.97;62.36;102186.78;5054979;28;45493;-54
2022/12/27 11:23:35;;;;;;;;;8.00;5.80;;;;;9.05;62.21;102194.16;5054748;28;45779;-52
2022/12/27 11:26:02;;;;;;;;;7.60;6.20;;;;;9.02;61.83;102183.53;5054683;28;45440;-54
2022/12/27 11:28:41;;;;;;;;;6.80;6.40;;;;;9.04;63.10;102159.56;5045565;28;46698;-53
2022/12/27 11:31:09;;;;;;;;;9.20;8.00;;;;;9.18;62.76;102166.31;5034899;28;45366;-57
2022/12/27 11:33:38;;;;;;;;;8.40;6.00;;;;;9.39;61.25;102104.69;5038051;28;45987;-51
2022/12/27 11:36:06;;;;;;;;;9.20;8.20;;;;;14.16;53.26;102143.03;5054526;28;45570;-53
2022/12/27 11:38:33;;;;;;;;;7.80;6.60;;;;;18.26;43.89;102131.50;5037864;28;45669;-57
2022/12/27 11:41:11;;;;;;;;;9.60;9.60;;;;;19.59;39.53;102098.50;5052924;28;45385;-57
2022/12/27 11:43:44;;;;;;;;;7.40;7.40;;;;;16.94;42.41;102090.47;5055744;28;46413;-56
2022/12/27 11:46:38;;;;;;;;;8.60;8.60;;;;;15.26;45.37;102110.16;5055238;28;45383;-57
2022/12/27 11:49:04;;;;;;;;;14.40;12.60;;;;;13.90;48.30;102116.94;5040281;28;45921;-56
2022/12/27 11:59:48;;;;;;;;;7.80;7.40;;;;;11.58;54.03;102118.06;5680157;22;46065;-57
2022/12/27 12:02:20;;;;;;;;;9.00;7.00;;;;;11.31;55.05;102119.50;5032175;28;45412;-58
2022/12/27 12:04:54;;;;;;;;;9.40;9.40;;;;;11.03;55.07;102122.75;5035825;28;45538;-58
2022/12/27 12:07:31;;;;;;;;;3.40;3.40;;;;;10.63;55.41;102073.38;5038530;28;45421;-58
2022/12/27 12:10:15;;;;;;;;;3.80;3.20;;;;;10.66;54.95;102117.81;5038558;28;45627;-56
2022/12/27 12:13:22;;;;;;;;;6.80;2.40;;;;;10.55;55.07;102120.94;5021951;28;45839;-54
2022/12/27 12:16:06;;;;;;;;;2.60;2.60;;;;;10.36;55.55;102116.69;5055436;28;45322;-55
2022/12/27 12:18:44;;;;;;;;;2.60;2.00;;;;;10.19;56.41;102110.41;5036519;28;45346;-52
2022/12/27 12:21:25;;;;;;;;;3.80;3.00;;;;;10.13;56.10;102115.56;5033445;28;46905;-54
2022/12/27 12:24:18;;;;;;;;;6.40;3.80;;;;;10.06;56.75;102130.13;5035150;28;45410;-55
2022/12/27 12:27:22;;;;;;;;;2.00;2.00;;;;;9.84;57.52;102095.06;5034630;28;45479;-53
2022/12/27 12:29:53;;;;;;;;;1.00;1.00;;;;;9.96;57.30;102111.13;5033972;28;45582;-52
2022/12/27 12:32:34;;;;;;;;;5.20;3.60;;;;;9.85;56.95;102096.78;5035377;28;45259;-57
2022/12/27 12:35:11;;;;;;;;;2.40;2.00;;;;;9.88;57.61;102095.56;5034044;28;45500;-55
2022/12/27 12:37:48;;;;;;;;;3.40;3.00;;;;;9.86;57.66;102093.00;5008035;28;45664;-59
2022/12/27 12:40:22;;;;;;;;;7.40;4.40;;;;;9.83;57.78;102087.00;5031436;28;45386;-55
2022/12/27 12:43:24;;;;;;;;;6.60;6.00;;;;;9.81;57.55;102078.09;5030625;28;46498;-57
2022/12/27 12:46:08;;;;;;;;;2.40;2.40;;;;;9.80;57.47;102068.13;5031125;28;45475;-55
2022/12/27 12:48:46;;;;;;;;;3.00;3.00;;;;;9.79;57.35;102072.78;5031041;28;45570;-53
2022/12/27 12:51:34;;;;;;;;;6.20;3.40;;;;;9.75;57.62;102068.66;5049883;28;45480;-58
2022/12/27 12:54:07;;;;;;;;;7.20;3.80;;;;;9.69;57.10;102056.53;5033052;28;47006;-54
2022/12/27 12:56:41;;;;;;;;;4.80;3.00;;;;;9.71;57.97;102064.59;5030401;28;45540;-59
2022/12/27 12:59:38;;;;;;;;;2.60;2.00;;;;;9.61;58.02;102043.66;5036770;28;45441;-58
2022/12/27 13:02:04;;;;;;;;;4.80;4.80;;;;;9.63;57.59;102047.13;5003353;28;45396;-59
2022/12/27 13:04:32;;;;;;;;;3.00;3.00;;;;;9.69;58.14;102059.25;5033281;28;45789;-56
2022/12/27 13:07:16;;;;;;;;;3.60;2.00;;;;;9.67;58.07;102049.50;5051730;28;45503;-54
2022/12/27 13:10:20;;;;;;;;;3.00;3.00;;;;;9.66;58.99;102053.28;4984832;28;45884;-56
2022/12/27 13:12:50;;;;;;;;;2.60;2.60;;;;;9.68;58.07;102043.84;5031836;28;45386;-60
2022/12/27 13:15:31;;;;;;;;;2.00;1.80;;;;;9.61;58.41;102035.44;5033134;28;46486;-60
2022/12/27 13:18:17;;;;;;;;;3.80;3.80;;;;;9.67;58.56;102042.13;5034533;28;45505;-59
2022/12/27 13:20:52;;;;;;;;;3.00;2.00;;;;;9.70;58.56;102038.16;5033352;28;45554;-59
2022/12/27 13:23:33;;;;;;;;;6.20;4.40;;;;;9.69;58.72;102037.31;5051711;28;45540;-59
2022/12/27 13:26:18;;;;;;;;;3.00;2.00;;;;;9.69;58.46;102037.31;5031993;28;47005;-59
2022/12/27 13:29:02;;;;;;;;;6.00;2.60;;;;;9.69;59.13;102029.09;5033343;28;45476;-58
2022/12/27 13:31:39;;;;;;;;;1.80;1.80;;;;;9.67;59.21;102019.34;5051100;28;45542;-61
2022/12/27 13:34:16;;;;;;;;;2.40;2.00;;;;;9.66;58.65;102023.13;5051530;28;45741;-60
2022/12/27 13:37:06;;;;;;;;;2.00;2.00;;;;;9.71;59.46;102015.22;5039736;28;45719;-58
2022/12/27 13:40:02;;;;;;;;;3.00;1.80;;;;;9.70;58.95;102006.13;5014245;28;46491;-59
2022/12/27 13:42:52;;;;;;;;;2.00;2.00;;;;;9.70;59.43;102008.00;5030264;28;45468;-56